• Join FlightAware (Why Join?)
  • Login
  • US Flag 
11:01AM EDT


 

Airport Tracker/Info


-or-


 

Live Flight TrackerFlight Track Log ✈ N6619C ✈ 28-Jul-2013 ✈ KMGN - KMGY

Flight Track Log - Related Links

Times and Time Zones

All times are in EDT time to prevent confusion due to time zone crossing. See the N6619C flight status page for this flight to view local times or setup timezone preferences in your user account.

Time Position Orientation Groundspeed Altitude Reporting Facility
EDT Latitude Longitude Course Direction KTS MPH feet Rate Location/Type
08:20AM 45.3589 -84.9078 164° South 135 155 3,100  Level Minneapolis Center
08:21AM 45.3253 -84.8939 164° South 127 146 3,800 660 Climbing Minneapolis Center
08:22AM 45.2900 -84.8850 170° South 127 146 4,500 660 Climbing Minneapolis Center
08:23AM 45.2547 -84.8808 175° South 128 147 5,200 600 Climbing Minneapolis Center
08:24AM 45.2192 -84.8772 176° South 128 147 5,800 540 Climbing Minneapolis Center
08:25AM 45.1831 -84.8733 176° South 129 148 6,400 600 Climbing Minneapolis Center
08:26AM 45.1464 -84.8683 175° South 130 150 7,100 540 Climbing Minneapolis Center
08:27AM 45.1111 -84.8633 174° South 130 150 7,600 480 Climbing Minneapolis Center
08:28AM 45.0689 -84.8575 174° South 128 147 8,200 240 Climbing Minneapolis Center
08:29AM 45.0292 -84.8522 175° South 141 162 8,200 -60 Level Minneapolis Center
08:30AM 44.9828 -84.8467 175° South 154 177 8,100 -60 Descending Minneapolis Center
08:31AM 44.9403 -84.8411 175° South 155 178 8,100  Level Minneapolis Center
08:32AM 44.8983 -84.8358 175° South 153 176 8,100  Level Minneapolis Center
08:33AM 44.8517 -84.8306 175° South 157 181 8,100  Level Minneapolis Center
08:34AM 44.8111 -84.8258 175° South 156 180 8,100  Level Minneapolis Center
08:35AM 44.7703 -84.8208 175° South 152 175 8,100  Level Minneapolis Center
08:36AM 44.7264 -84.8147 174° South 153 176 8,100  Level Minneapolis Center
08:37AM 44.6819 -84.8097 175° South 156 180 8,100  Level Minneapolis Center
08:38AM 44.6364 -84.8050 176° South 160 184 8,100 -180 Level Minneapolis Center
08:39AM 44.5906 -84.7992 175° South 163 188 7,800 -540 Descending Minneapolis Center
08:40AM 44.5356 -84.7928 175° South 165 190 7,100 -660 Descending Minneapolis Center
08:41AM 44.4886 -84.7864 174° South 166 191 6,500 -600 Descending Minneapolis Center
08:42AM 44.4417 -84.7800 174° South 168 193 6,000 -300 Descending Minneapolis Center
08:43AM 44.3958 -84.7753 176° South 167 192 6,000  Level Minneapolis Center
08:44AM 44.3514 -84.7697 175° South 164 189 6,000  Level Minneapolis Center
08:46AM 44.3083 -84.7647 175° South 159 183 6,000  Level Minneapolis Center
08:47AM 44.2653 -84.7606 176° South 155 178 6,000  Level Minneapolis Center
08:48AM 44.2228 -84.7544 174° South 155 178 6,000  Level Minneapolis Center
08:49AM 44.1803 -84.7492 175° South 154 177 6,000  Level Minneapolis Center
08:50AM 44.1378 -84.7456 177° South 153 176 6,000  Level Minneapolis Center
08:51AM 44.0958 -84.7397 174° South 153 176 6,000  Level Minneapolis Center
08:52AM 44.0442 -84.7342 176° South 154 177 6,000  Level Minneapolis Center
08:53AM 44.0039 -84.7294 175° South 155 178 6,000  Level Minneapolis Center
08:54AM 43.9608 -84.7236 174° South 156 180 6,000  Level Minneapolis Center
08:55AM 43.9183 -84.7189 175° South 154 177 6,000  Level Minneapolis Center
08:56AM 43.8769 -84.7136 175° South 151 174 6,000  Level Minneapolis Center
08:57AM 43.8361 -84.7086 175° South 149 171 6,000  Level Minneapolis Center
08:58AM 43.7944 -84.7042 176° South 149 171 6,000  Level Minneapolis Center
08:59AM 43.7533 -84.6989 175° South 150 173 6,000  Level Minneapolis Center
09:00AM 43.7097 -84.6944 176° South 153 176 6,000  Level Minneapolis Center
09:01AM 43.6606 -84.6875 174° South 150 173 6,000  Level Minneapolis Center
09:02AM 43.6178 -84.6825 175° South 152 175 6,000  Level Minneapolis Center
09:03AM 43.5753 -84.6781 176° South 153 176 6,000  Level Minneapolis Center
09:04AM 43.5336 -84.6736 176° South 152 175 6,000  Level Minneapolis Center
09:05AM 43.4914 -84.6683 175° South 152 175 6,000  Level Minneapolis Center
09:07AM 43.4200 -84.6785 186° South  Level FlightAware Approximate
09:14AM 43.1118 -84.7137 177° South  Level FlightAware Approximate
09:15AM 43.0683 -84.7104 177° South  Level FlightAware Approximate
09:16AM 43.0249 -84.7070 177° South  Level FlightAware Approximate
09:17AM 42.9814 -84.7037 177° South  Level FlightAware Approximate
09:18AM 42.9380 -84.7003 177° South  Level FlightAware Approximate
09:19AM 42.8945 -84.6970 177° South  Level FlightAware Approximate
09:20AM 42.8511 -84.6936 177° South  Level FlightAware Approximate
09:21AM 42.8076 -84.6903 177° South  Level FlightAware Approximate
09:22AM 42.7642 -84.6870 177° South  Level FlightAware Approximate
09:23AM 42.7207 -84.6836 177° South  Level FlightAware Approximate
09:24AM 42.6775 -84.6774 174° South  Level FlightAware Approximate
09:25AM 42.6342 -84.6709 174° South  Level FlightAware Approximate
09:26AM 42.5910 -84.6643 174° South  Level FlightAware Approximate
09:27AM 42.5477 -84.6578 174° South  Level FlightAware Approximate
09:28AM 42.5045 -84.6513 174° South  Level FlightAware Approximate
09:29AM 42.4612 -84.6448 174° South  Level FlightAware Approximate
09:30AM 42.4180 -84.6383 174° South  Level FlightAware Approximate
09:31AM 42.3747 -84.6318 174° South  Level FlightAware Approximate
09:32AM 42.3315 -84.6253 174° South  Level FlightAware Approximate
09:33AM 42.2882 -84.6188 174° South  Level FlightAware Approximate
09:34AM 42.2450 -84.6124 174° South  Level FlightAware Approximate
09:35AM 42.2017 -84.6059 174° South  Level FlightAware Approximate
09:36AM 42.1585 -84.5995 174° South  Level FlightAware Approximate
09:37AM 42.1152 -84.5930 174° South  Level FlightAware Approximate
09:38AM 42.0719 -84.5866 174° South  Level FlightAware Approximate
09:39AM 42.0286 -84.5803 174° South  Level FlightAware Approximate
09:40AM 41.9854 -84.5742 174° South  Level FlightAware Approximate
09:41AM 41.9421 -84.5681 174° South  Level FlightAware Approximate
09:41AM 41.9808 -84.4919 174° South 150 173 7,100  Level Chicago Center
09:42AM 41.8988 -84.5620 174° South  Level FlightAware Approximate
09:42AM 41.9353 -84.4867 175° South 149 171 7,100  Level Chicago Center
09:43AM 41.8777 -84.5591 174° South  Level FlightAware Approximate
09:43AM 41.8922 -84.4817 175° South 153 176 7,000  Level Chicago Center
09:44AM 41.8567 -84.5561 174° South  Level FlightAware Approximate
09:44AM 41.8483 -84.4761 175° South 156 180 6,500  Level Chicago Center
09:45AM 41.8356 -84.5532 174° South  Level FlightAware Approximate
09:45AM 41.8050 -84.4703 174° South 157 181 6,100  Level Chicago Center
09:46AM 41.6116 -84.5219 174° South  Level FlightAware Approximate
09:46AM 41.7622 -84.4664 176° South 156 180 6,000  Level Chicago Center
09:47AM 41.3876 -84.4908 174° South  Level FlightAware Approximate
09:48AM 41.7189 -84.4608 175° South 155 178 6,000  Level Chicago Center
09:49AM 41.6683 -84.4544 175° South 154 177 6,000  Level Chicago Center
09:50AM 41.6247 -84.4506 176° South 155 178 6,000  Level Chicago Center
09:51AM 41.5811 -84.4450 175° South 156 180 6,000  Level Chicago Center
09:52AM 41.5369 -84.4400 175° South 157 181 6,000  Level Chicago Center
09:53AM 41.4919 -84.4339 174° South 159 183 6,000  Level Chicago Center
09:54AM 41.4478 -84.4292 175° South 160 184 6,000  Level Chicago Center
09:55AM 41.3950 -84.4231 175° South 159 183 6,000  Level Chicago Center
09:56AM 41.3511 -84.4181 175° South 159 183 6,000  Level Chicago Center
09:57AM 41.3069 -84.4119 174° South 159 183 6,000  Level Chicago Center
09:58AM 41.2636 -84.4075 176° South 158 182 6,000  Level Chicago Center
09:59AM 41.2206 -84.4031 176° South 156 180 6,000  Level Chicago Center
10:00AM 41.1767 -84.3978 175° South 158 182 6,000  Level Chicago Center
10:01AM 41.1314 -84.3931 176° South 159 183 6,000  Level Chicago Center
10:02AM 41.0792 -84.3869 175° South 159 183 6,000  Level Chicago Center
10:03AM 41.0350 -84.3808 174° South 159 183 6,000  Level Chicago Center
10:04AM 40.9897 -84.3750 174° South 161 185 6,000  Level Chicago Center
10:05AM 40.9453 -84.3708 176° South 161 185 6,000  Level Chicago Center
10:06AM 40.9022 -84.3667 176° South 158 182 6,000  Level Chicago Center
10:07AM 40.8517 -84.3622 176° South 156 180 6,000  Level Indianapolis Center
10:08AM 40.8050 -84.3567 175° South 167 192 6,000  Level Indianapolis Center
10:09AM 40.7600 -84.3508 174° South 163 188 6,000  Level Indianapolis Center
10:10AM 40.7158 -84.3472 176° South 160 184 6,000  Level Indianapolis Center
10:11AM 40.6717 -84.3417 175° South 159 183 6,000  Level Indianapolis Center
10:12AM 40.6261 -84.3369 176° South 161 185 6,000  Level Indianapolis Center
10:13AM 40.5797 -84.3317 175° South 163 188 6,000  Level Indianapolis Center
10:14AM 40.5242 -84.3256 175° South 167 192 6,000  Level Indianapolis Center
10:15AM 40.4778 -84.3208 176° South 167 192 6,000  Level Indianapolis Center
10:16AM 40.4308 -84.3156 175° South 167 192 6,000  Level Indianapolis Center
10:17AM 40.3911 -84.3117 176° South 168 193 6,100  Climbing Indianapolis Center
10:18AM 40.3433 -84.3058 175° South 171 197 6,100  Level Indianapolis Center
10:19AM 40.2978 -84.3003 175° South 170 196 6,100  Level Indianapolis Center
10:20AM 40.2497 -84.2969 177° South 169 194 6,100  Level Indianapolis Center
10:21AM 40.1978 -84.2903 174° South 168 193 6,100  Level Indianapolis Center
10:22AM 40.1500 -84.2844 175° South 168 193 6,100  Level Indianapolis Center
10:23AM 40.1019 -84.2814 177° South 170 196 6,100  Level Indianapolis Center
10:24AM 40.0561 -84.2758 175° South 170 196 6,100  Level Indianapolis Center
10:25AM 40.0064 -84.2694 174° South 170 196 6,100  Level Indianapolis Center
10:26AM 39.9542 -84.2656 177° South 169 194 6,100  Level Indianapolis Center
10:27AM 39.9064 -84.2597 175° South 165 190 6,100  Level Indianapolis Center
10:29AM 39.8606 -84.2542 175° South 167 192 6,100  Level Indianapolis Center
10:30AM 39.8128 -84.2483 175° South 172 198 6,100 -300 Level Indianapolis Center
10:31AM 39.7650 -84.2425 175° South 172 198 5,500 -660 Descending Indianapolis Center
10:32AM 39.6986 -84.2361 176° South 172 198 4,600 -720 Descending Indianapolis Center